x

8452944 - Conimicut Light, Ri (cptr1) Weather Station

1:54 - Wed 28th Jan 2015 All times are EST. -5 hours from GMT.

  • Wind
    18mph, 22mph gusts
  • Sea Temp 35°f
  • Aire Temp 17°f
  • Sea Pressure 1006.1mb
  • 8452944 - Conimicut Light, Ri
  • 8452944 - Conimicut Light, Ri

More Historic Weather Station data

Upgrade to MSW Pro to gain access to the past 30 days of data for over 8000 Wavebouys and Weather Stations around the globe.

Join Pro

Comparision Forecast

View Surf forecast
   
mié 01/28 1:54 18 22 mph 1006.1mb 35f 17f
1:48 21 24 mph 1006mb 35f 16f
1:42 21 24 mph 1005.9mb 35f 16f
1:36 22 24 mph 1005.8mb 35f 17f
1:30 21 24 mph 1005.8mb 35f 17f
1:12 22 25 mph 1005.5mb 35f 17f
1:06 20 24 mph 1005.5mb 35f 17f
1:00 20 25 mph 1005.4mb 35f 16f
12:54 22 26 mph 1005.3mb 35f 17f
12:42 20 24 mph 1005.2mb 35f 16f
12:36 18 24 mph 1005.2mb 35f 16f
12:24 20 23 mph 1005.1mb 35f 16f
12:18 21 25 mph 1005.1mb 35f 15f
12:12 20 24 mph 1005mb 35f 15f
12:06 21 24 mph 1005mb 35f 16f
12:00 21 25 mph 1005mb 35f 16f
mar 01/27 11:54 23 29 mph 1004.9mb 35f 16f
11:48 22 26 mph 1004.8mb 35f 16f
11:42 22 28 mph 1004.8mb 35f 16f
11:30 23 29 mph 1004.6mb 35f 16f
11:24 23 30 mph 1004.7mb 35f 16f
11:18 22 29 mph 1004.7mb 35f 16f
11:06 23 26 mph 1004.5mb 35f 16f
10:54 25 30 mph 1004.4mb 35f 15f
10:48 24 28 mph 1004.3mb 35f 16f
10:36 23 29 mph 1004.3mb 34f 16f
10:30 24 29 mph 1004.2mb 34f 16f
10:24 24 28 mph 1004.1mb 34f 16f
10:18 26 31 mph 1004mb 34f 16f
10:12 23 26 mph 1003.9mb 34f 16f
10:06 22 30 mph 1003.8mb 34f 17f
10:00 24 29 mph 1003.6mb 34f 16f
9:48 25 30 mph 1003.5mb 34f 17f
9:42 24 30 mph 1003.4mb 34f 17f
9:36 24 30 mph 1003.3mb 34f 17f
9:24 28 34 mph 1003mb 34f 17f
9:06 26 30 mph 1002.9mb 34f 17f
8:54 25 32 mph 1002.7mb 34f 17f
8:48 26 34 mph 1002.7mb 34f 17f
8:42 28 34 mph 1002.6mb 34f 17f
8:30 25 30 mph 1002.5mb 34f 17f
8:12 25 30 mph 1002.2mb 34f 17f
8:06 28 32 mph 1002.1mb 34f 17f
7:54 26 32 mph 1002mb 34f 17f
7:48 26 30 mph 1001.9mb 34f 17f
7:36 25 30 mph 1001.8mb 35f 17f
7:24 26 33 mph 1001.5mb 35f 18f
7:18 26 31 mph 1001.4mb 35f 18f
7:06 26 30 mph 1001.1mb 35f 19f
6:48 25 32 mph 1000.9mb 35f 20f
6:36 24 33 mph 1000.7mb 35f 20f
6:30 24 33 mph 1000.6mb 35f 20f
6:24 26 32 mph 1000.5mb 35f 20f
6:18 24 30 mph 1000.5mb 35f 20f
6:12 25 29 mph 1000.3mb 35f 20f
6:06 26 31 mph 1000.2mb 35f 20f
5:54 28 30 mph 999.9mb 35f 20f
5:48 25 31 mph 999.9mb 35f 20f
5:42 29 32 mph 999.7mb 35f 20f
5:30 25 29 mph 999.6mb 35f 20f
5:24 22 28 mph 999.5mb 35f 20f
5:12 25 36 mph 999.4mb 35f 22f
5:00 30 40 mph 999.2mb 35f 22f
4:54 25 32 mph 999.2mb 35f 22f
4:48 26 37 mph 999.1mb 35f 22f
4:36 33 49 mph 998.8mb 35f 22f
4:18 33 41 mph 998.6mb 35f 22f
4:12 25 32 mph 998.6mb 35f 22f
4:06 29 34 mph 998.5mb 35f 22f
4:00 34 43 mph 998.4mb 35f 22f
3:54 33 40 mph 998.3mb 35f 22f
3:48 33 40 mph 998.3mb 35f 22f
3:42 25 32 mph 998.4mb 35f 22f
3:24 34 41 mph 998.3mb 35f 21f
3:18 37 41 mph 998.3mb 35f 21f
3:12 29 34 mph 998.4mb 35f 21f
3:00 34 45 mph 998.2mb 35f 20f
2:48 32 40 mph 998.2mb 35f 21f
2:42 34 44 mph 998mb 35f 20f
2:36 31 40 mph 998.1mb 35f 21f
2:30 30 37 mph 998mb 35f 20f
2:24 28 40 mph 998mb 35f 20f
2:18 36 43 mph 997.9mb 35f 19f
2:06 30 34 mph 997.8mb 35f 20f
2:00 32 37 mph 997.8mb 35f 20f
1:48 32 40 mph 997.7mb 35f 20f
1:30 33 39 mph 997.7mb 35f 19f
1:24 32 39 mph 997.6mb 35f 20f
1:18 32 39 mph 997.6mb 35f 20f
1:06 36 44 mph 997.5mb 35f 19f
12:54 30 44 mph 997.5mb 35f 19f
12:48 31 39 mph 997.3mb 36f 19f
12:36 32 38 mph 997.2mb 36f 19f
12:24 30 43 mph 997.4mb 35f 19f
12:12 32 40 mph 997.3mb 36f 19f
12:06 32 38 mph 997.3mb 36f 19f
11:54 31 40 mph 997.4mb 36f 19f
11:18 26 37 mph 997.9mb 35f 19f
10:54 30 37 mph 998mb 35f 19f
10:48 31 38 mph 998.1mb 35f 18f
10:42 30 34 mph 998mb 35f 19f
10:36 28 31 mph 998.2mb 35f 19f
10:24 29 36 mph 998.2mb 35f 19f
10:18 28 32 mph 998.1mb 35f 19f
10:12 24 33 mph 998.1mb 35f 19f
10:06 25 30 mph 998mb 35f 19f
10:00 24 29 mph 998mb 35f 19f
9:54 25 31 mph 997.9mb 35f 19f
9:48 26 32 mph 997.8mb 35f 19f
9:42 24 36 mph 997.8mb 35f 19f
9:36 30 38 mph 997.7mb 35f 19f
9:30 28 38 mph 997.6mb 35f 19f
9:24 26 36 mph 997.5mb 35f 19f
9:18 26 37 mph 997.6mb 35f 19f
9:12 30 44 mph 997.6mb 35f 19f
9:06 30 43 mph 997.4mb 35f 19f
8:54 29 43 mph 997.6mb 35f 19f
8:48 30 37 mph 997.6mb 35f 19f
8:42 32 40 mph 997.7mb 35f 19f
8:36 30 38 mph 997.9mb 35f 19f
8:30 34 39 mph 998mb 35f 19f
8:24 29 39 mph 998.2mb 35f 19f
8:18 34 44 mph 998.1mb 35f 19f
8:12 29 40 mph 998.3mb 35f 19f
8:06 31 45 mph 998.4mb 35f 19f
8:00 31 39 mph 998.7mb 35f 19f
7:54 28 44 mph 998.8mb 35f 20f
7:48 32 43 mph 998.9mb 35f 19f
7:42 31 41 mph 999mb 35f 19f
7:36 31 46 mph 999.1mb 35f 20f
7:30 30 44 mph 999mb 35f 20f
7:24 36 49 mph 998.9mb 35f 19f
7:18 30 44 mph 999.1mb 35f 20f
7:12 36 46 mph 999.1mb 35f 20f
7:06 37 45 mph 999.1mb 35f 20f
7:00 37 46 mph 999mb 35f 19f
6:54 33 44 mph 999mb 35f 19f
6:36 34 45 mph 998.8mb 35f 19f
6:30 32 43 mph 998.8mb 35f 19f
6:24 33 41 mph 999mb 35f 19f
6:18 34 40 mph 999mb 35f 19f
6:06 39 48 mph 998.7mb 35f 19f
5:54 36 45 mph 998.8mb 35f 20f
5:48 29 45 mph 999.1mb 35f 20f
5:42 31 46 mph 998.9mb 35f 20f
5:30 37 44 mph 998.7mb 35f 19f
5:24 38 48 mph 998.5mb 35f 19f
5:18 39 47 mph 998.5mb 35f 19f
5:12 37 49 mph 998.6mb 35f 20f
5:06 39 47 mph 998.3mb 35f 20f
4:54 39 53 mph 998.1mb 36f 20f
4:48 39 47 mph 998.1mb 36f 20f
4:36 37 51 mph 998.5mb 36f 20f
4:30 44 52 mph 998.2mb 36f 19f
4:24 39 51 mph 998.5mb 36f 19f
4:18 40 53 mph 998.5mb 36f 20f
3:42 43 49 mph 999.1mb 35f 19f
3:36 40 49 mph 999.1mb 35f 19f
3:30 43 49 mph 998.9mb 35f 19f
3:24 41 51 mph 999mb 35f 19f
3:12 43 51 mph 999.2mb 35f 19f
3:06 40 49 mph 999.3mb 35f 19f
2:54 39 46 mph 999.9mb 35f 19f
2:48 39 45 mph 1000mb 35f 19f
2:42 40 51 mph 1000.1mb 35f 19f
2:36 37 47 mph 1000.5mb 35f 19f
2:30 33 44 mph 1000.9mb 35f 19f
2:24 39 44 mph 1001.1mb 35f 19f
2:12 33 45 mph 1001.4mb 35f 19f
2:06 36 43 mph 1001.3mb 35f 19f
2:00 32 47 mph 1001.3mb 35f 19f
1:54 36 53 mph 1001.4mb 35f 19f
1:42 34 43 mph 1001.3mb 35f 19f
1:36 31 45 mph 1001.7mb 35f 20f
1:30 30 40 mph 1001.7mb 36f 20f
1:12 33 43 mph 1001.9mb 36f 21f
1:00 33 41 mph 1002.3mb 36f 22f
12:54 33 45 mph 1002.4mb 36f 22f
12:42 33 40 mph 1002.8mb 36f 22f
12:36 30 40 mph 1002.8mb 36f 23f
12:30 31 43 mph 1003mb 36f 22f
12:24 32 41 mph 1003mb 36f 23f
12:12 36 41 mph 1003.1mb 36f 23f
12:06 33 45 mph 1003.6mb 36f 24f
12:00 31 44 mph 1003.8mb 36f 26f
lun 01/26 11:54 30 39 mph 1003.9mb 36f 28f
11:42 29 44 mph 1004.3mb 36f 28f
11:30 33 39 mph 1005mb 36f 28f
11:24 29 41 mph 1005.3mb 36f 28f
11:18 36 43 mph 1005.3mb 36f 29f
11:12 30 46 mph 1005.6mb 36f 29f
11:06 29 40 mph 1005.6mb 36f 29f
11:00 28 39 mph 1005.8mb 36f 29f
10:48 29 43 mph 1006mb 35f 29f
10:42 33 40 mph 1006.2mb 35f 29f
10:36 28 34 mph 1006.8mb 35f 29f
10:30 30 41 mph 1007.2mb 35f 29f
10:24 30 43 mph 1007.3mb 35f 29f
10:18 31 41 mph 1007.2mb 35f 29f
10:06 24 37 mph 1007.5mb 35f 29f
9:48 28 37 mph 1008.1mb 35f 28f
9:42 26 37 mph 1008.5mb 35f 28f
9:30 24 33 mph 1009.1mb 35f 28f
9:24 23 30 mph 1009.3mb 35f 28f
9:18 26 34 mph 1009.6mb 35f 28f
9:06 23 30 mph 1009.9mb 35f 29f
9:00 23 31 mph 1010.2mb 35f 29f
8:48  -  mph 1010.6mb 35f 29f
8:42  -  mph 1010.6mb 35f 29f
8:30 21 31 mph 1011.1mb 35f 29f
8:24 18 24 mph 1011.5mb 35f 28f
8:18 15 22 mph 1012mb 35f 28f
7:54 22 26 mph 1012.1mb 35f 28f
7:36 17 26 mph 1012.7mb 36f 28f
7:30 20 26 mph 1012.8mb 36f 28f
7:24 20 26 mph 1013mb 36f 28f
7:18 17 24 mph 1013.4mb 36f 29f
7:12 17 24 mph 1013.6mb 36f 28f
7:06 17 23 mph 1013.7mb 36f 28f
7:00 16 22 mph 1013.5mb 36f 28f
6:54 16 23 mph 1013.4mb 36f 28f
6:48 18 24 mph 1013.5mb 36f 28f
6:42 17 22 mph 1013.6mb 36f 28f
6:36 17 23 mph 1013.6mb 36f 28f
6:30 18 24 mph 1013.6mb 36f 28f
6:24 17 23 mph 1013.5mb 36f 28f
6:18 18 24 mph 1013.6mb 36f 28f
6:12 17 21 mph 1013.6mb 36f 28f
6:06 17 25 mph 1013.7mb 36f 28f
6:00 18 22 mph 1013.6mb 35f 28f
5:54 16 25 mph 1013.7mb 36f 28f
5:48 16 23 mph 1013.9mb 36f 28f
5:42 16 22 mph 1014.2mb 36f 28f
5:36 18 22 mph 1014.2mb 36f 28f
5:30 15 23 mph 1014.4mb 36f 28f
5:24 20 24 mph 1014.4mb 36f 28f
5:18 16 21 mph 1014.6mb 35f 28f
5:12 16 20 mph 1014.6mb 35f 28f
5:06 14 21 mph 1014.6mb 35f 28f
5:00 15 20 mph 1014.6mb 35f 28f
4:54 11 17 mph 1014.8mb 35f 28f
4:48 14 17 mph 1014.5mb 35f 28f
4:42 14 16 mph 1014.5mb 35f 28f
4:36 15 17 mph 1014.5mb 35f 28f
4:30 13 16 mph 1014.4mb 35f 28f
4:24 11 16 mph 1014.4mb 35f 28f
4:18 13 17 mph 1014.5mb 35f 28f
4:12 14 17 mph 1014.6mb 35f 28f
4:06 11 16 mph 1014.8mb 35f 28f
4:00 11 15 mph 1014.7mb 35f 28f
3:54 11 15 mph 1014.8mb 35f 28f
3:48 10 14 mph 1014.8mb 35f 28f
3:42 10 14 mph 1014.7mb 35f 28f
3:36 9 11 mph 1014.9mb 35f 28f
3:30 9 11 mph 1014.9mb 35f 27f
3:24 10 13 mph 1014.8mb 35f 27f
3:18 10 14 mph 1014.8mb 35f 27f
3:12 11 14 mph 1014.9mb 35f 27f
3:06 11 14 mph 1014.9mb 35f 27f
3:00 11 14 mph 1014.9mb 35f 26f
2:54 13 15 mph 1015mb 35f 26f
2:48 11 14 mph 1015.3mb 35f 26f
2:42 13 15 mph 1015.3mb 35f 26f
2:36 13 15 mph 1015.3mb 35f 26f
2:30 13 15 mph 1015.5mb 35f 26f
2:24 11 14 mph 1015.5mb 35f 26f
2:18 13 16 mph 1015.5mb 35f 26f
2:12 14 16 mph 1015.3mb 35f 25f
2:06 14 16 mph 1015.4mb 35f 25f
2:00 13 16 mph 1015.5mb 35f 25f
1:54 14 16 mph 1015.3mb 35f 25f
1:48 14 16 mph 1015.6mb 35f 25f
1:42 14 15 mph 1015.6mb 35f 25f
1:36 14 17 mph 1015.8mb 35f 24f
1:30 13 17 mph 1016mb 36f 24f
1:24 13 17 mph 1016.2mb 36f 24f
1:18 15 18 mph 1016.1mb 36f 24f
1:12 15 20 mph 1016mb 36f 24f
1:06 16 20 mph 1016.2mb 36f 23f
1:00 14 22 mph 1016.4mb 36f 23f
12:54 14 21 mph 1016.4mb 36f 23f
12:48 14 17 mph 1016.6mb 36f 23f
12:42 13 17 mph 1016.8mb 36f 22f
12:36 14 17 mph 1016.7mb 36f 22f
12:30 14 17 mph 1016.7mb 36f 22f
12:24 14 17 mph 1016.9mb 36f 22f
12:18 15 20 mph 1017.1mb 36f 22f
12:12 15 17 mph 1017.3mb 36f 22f
12:06 14 20 mph 1017.6mb 36f 22f
12:00 17 20 mph 1017.7mb 36f 21f
11:54 16 20 mph 1017.7mb 36f 21f
11:48 14 18 mph 1017.8mb 36f 21f
11:42 14 17 mph 1018mb 36f 21f
11:24 15 18 mph 1018.2mb 36f 21f
11:12 13 16 mph 1018.5mb 36f 21f
11:06 13 15 mph 1018.8mb 36f 20f
11:00 11 15 mph 1019mb 36f 21f
10:54 11 15 mph 1019.1mb 36f 20f
10:42 14 16 mph 1018.9mb 36f 20f
10:30 11 16 mph 1019.2mb 36f 20f
10:24 13 16 mph 1019.2mb 36f 20f
10:18 9 14 mph 1019.2mb 36f 19f
10:12 14 17 mph 1019.3mb 36f 19f
10:06 13 16 mph 1019.2mb 36f 19f
10:00 13 17 mph 1019.1mb 36f 19f
9:54 15 17 mph 1019.1mb 36f 19f
9:48 14 18 mph 1019.1mb 36f 19f
9:42 15 17 mph 1019.1mb 36f 19f
9:36 14 17 mph 1019.2mb 36f 19f
9:30 14 17 mph 1019.1mb 36f 19f
9:24 13 16 mph 1019.2mb 36f 18f
9:18 14 16 mph 1019.2mb 36f 18f
9:12 13 17 mph 1019.2mb 36f 18f
9:06 14 17 mph 1019.2mb 36f 18f
9:00 13 17 mph 1019.3mb 36f 18f
8:54 14 20 mph 1019.3mb 36f 18f
8:48 13 15 mph 1019.3mb 36f 18f
8:42 11 15 mph 1019.3mb 36f 18f
8:36 14 15 mph 1019.4mb 36f 18f
8:30 13 17 mph 1019.5mb 36f 18f
8:24 15 16 mph 1019.5mb 36f 18f
8:18 13 15 mph 1019.5mb 36f 18f
8:12 10 13 mph 1019.5mb 36f 18f
8:06 13 15 mph 1019.6mb 36f 18f
8:00 14 17 mph 1019.6mb 36f 17f
7:54 15 17 mph 1019.6mb 36f 18f
7:48 15 16 mph 1019.6mb 36f 18f
7:42 14 16 mph 1019.6mb 36f 18f
7:36 11 15 mph 1019.6mb 36f 18f
7:30 11 15 mph 1019.7mb 36f 18f
7:24 13 16 mph 1019.7mb 36f 18f
7:18 13 16 mph 1019.5mb 36f 18f
7:12 14 17 mph 1019.5mb 36f 18f
7:06 13 17 mph 1019.6mb 36f 18f
7:00 13 15 mph 1019.5mb 36f 18f
6:54 11 16 mph 1019.5mb 36f 19f
6:48 14 16 mph 1019.4mb 36f 18f
6:42 14 16 mph 1019.5mb 36f 18f
6:36 11 15 mph 1019.4mb 36f 18f
6:30 13 15 mph 1019.4mb 36f 18f
6:24 14 16 mph 1019.5mb 36f 19f
6:18 11 15 mph 1019.5mb 36f 19f
6:12 11 16 mph 1019.5mb 36f 19f
6:06 14 16 mph 1019.4mb 36f 19f
6:00 11 16 mph 1019.5mb 36f 19f
5:54 14 16 mph 1019.4mb 36f 19f
5:48 13 15 mph 1019.4mb 36f 19f
5:42 10 15 mph 1019.3mb 36f 19f
5:36 13 17 mph 1019mb 36f 19f
5:30 14 17 mph 1018.9mb 36f 19f
5:24 16 18 mph 1018.8mb 36f 19f
5:18 14 17 mph 1019.1mb 36f 20f
5:12 13 16 mph 1019mb 36f 20f
5:06 15 20 mph 1018.9mb 36f 20f
5:00 8 11 mph 1019mb 36f 20f
4:54 13 15 mph 1018.6mb 36f 20f
4:48 13 15 mph 1018.4mb 36f 20f
4:42 10 14 mph 1018.7mb 36f 20f
4:30 11 14 mph 1018.6mb 36f 20f
4:24 10 14 mph 1018.7mb 36f 20f
4:18 11 15 mph 1018.5mb 36f 21f
4:12 13 16 mph 1018.4mb 36f 21f
4:06 13 15 mph 1018.4mb 36f 21f
4:00 13 15 mph 1018.4mb 36f 21f
3:54 14 17 mph 1018.3mb 36f 21f
3:48 14 17 mph 1018.3mb 36f 21f
3:42 14 16 mph 1018.3mb 36f 22f
3:36 13 16 mph 1018.4mb 36f 22f
3:30 14 16 mph 1018.2mb 36f 22f
3:24 14 16 mph 1018.3mb 36f 22f
3:18 14 16 mph 1018.2mb 36f 22f
3:12 13 14 mph 1018.3mb 36f 22f
3:06 10 13 mph 1018.3mb 36f 23f
3:00 9 13 mph 1018.3mb 36f 23f
2:54 11 16 mph 1018.2mb 36f 23f
2:48 14 20 mph 1018.1mb 36f 23f
2:42 18 21 mph 1017.9mb 36f 23f
2:36 13 18 mph 1017.8mb 36f 23f
2:30 13 15 mph 1017.7mb 36f 23f
2:24 14 17 mph 1017.7mb 36f 23f
2:18 15 18 mph 1017.7mb 36f 23f
2:12 11 18 mph 1017.8mb 36f 23f
2:06 11 15 mph 1017.7mb 36f 23f
2:00 14 16 mph 1017.6mb 36f 24f
1:54 15 18 mph 1017.6mb 36f 23f
1:48 16 17 mph 1017.6mb - 24f
1:42 16 21 mph 1017.6mb - 24f
1:36 14 18 mph 1017.4mb - 24f
1:30 15 18 mph 1017.2mb 36f 24f
1:24 14 16 mph 1017.1mb 36f 24f
1:12 11 14 mph 1017.3mb 36f 24f
1:06 11 17 mph 1017.3mb 36f 24f
1:00 15 17 mph 1017.1mb 36f 24f
12:54 11 14 mph 1017.1mb 36f 25f
12:48 13 15 mph 1017.1mb 36f 25f
12:42 11 17 mph 1017.2mb 36f 25f
12:36 15 20 mph 1017mb 36f 25f
12:30 14 18 mph 1016.7mb 36f 25f
12:24 16 18 mph 1016.6mb 36f 25f
12:18 15 16 mph 1016.7mb 36f 25f
12:12 14 16 mph 1016.8mb 36f 24f
12:06 14 16 mph 1016.7mb 36f 24f
12:00 15 17 mph 1016.8mb 36f 24f
dom 01/25 11:54 15 16 mph 1016.9mb 36f 24f
11:48 13 15 mph 1016.9mb 36f 24f
11:42 11 15 mph 1017mb 36f 25f
11:36 13 14 mph 1016.9mb 36f 25f
11:30 11 14 mph 1016.8mb 36f 25f
11:24 11 15 mph 1016.8mb 36f 25f
11:18 10 13 mph 1016.6mb 36f 25f
11:12 10 14 mph 1016.4mb 37f 25f
11:06 9 13 mph 1016.2mb 37f 26f
11:00 10 14 mph 1016.1mb 37f 26f
10:54 13 14 mph 1016.1mb 37f 25f
10:48 13 14 mph 1015.9mb 37f 26f
10:42 11 14 mph 1015.7mb 37f 26f
10:36 13 15 mph 1015.5mb 37f 26f
10:30 10 13 mph 1015.5mb 37f 26f
10:24 11 15 mph 1015.5mb 37f 26f
10:18 13 15 mph 1015.3mb 37f 26f
10:12 14 16 mph 1015.2mb 37f 26f
10:06 13 15 mph 1015.2mb 37f 26f
10:00 15 18 mph 1015mb 37f 27f
9:54 16 18 mph 1014.9mb 37f 27f
9:48 16 21 mph 1014.9mb 37f 27f
9:42 15 20 mph 1014.6mb 37f 27f
9:36 17 20 mph 1014.4mb 37f 27f
9:30 16 18 mph 1014.5mb 37f 27f
9:24 15 18 mph 1014.4mb 37f 27f
9:18 14 16 mph 1014.3mb 37f 27f
9:12 13 15 mph 1014.3mb 37f 28f
9:06 10 15 mph 1014.4mb 37f 28f
9:00 11 14 mph 1014.2mb 37f 28f
8:54 13 17 mph 1014.1mb 37f 28f
8:48 13 18 mph 1013.9mb 37f 28f
8:42 16 20 mph 1013.8mb 37f 28f
8:36 15 16 mph 1013.8mb 37f 28f
8:30 13 16 mph 1013.8mb 37f 28f
8:24 14 20 mph 1013.7mb 37f 29f
8:18 16 18 mph 1013.4mb 37f 29f
8:12 14 16 mph 1013.3mb 37f 29f
8:06 14 16 mph 1013.3mb 37f 29f
8:00 15 17 mph 1013.1mb 37f 29f
7:54 15 16 mph 1013.2mb 37f 29f
7:48 14 18 mph 1013.2mb 37f 29f
7:42 16 17 mph 1013.1mb 37f 29f
7:36 14 16 mph 1013.1mb 37f 29f
7:30 13 15 mph 1013.2mb 37f 30f
7:24 14 16 mph 1013.1mb 37f 30f
7:18 14 16 mph 1012.9mb 37f 30f
7:12 15 17 mph 1012.6mb 37f 30f
7:06 13 15 mph 1012.5mb 37f 30f
7:00 14 15 mph 1012.4mb 37f 31f
6:54 14 17 mph 1012.2mb 37f 31f
6:48 13 17 mph 1012.3mb 37f 31f
6:42 14 17 mph 1012.2mb 37f 31f
6:36 16 21 mph 1012mb 37f 31f
6:30 16 20 mph 1011.9mb 37f 31f
6:24 16 17 mph 1011.7mb 37f 31f
6:18 16 18 mph 1011.5mb 37f 31f
6:12 15 20 mph 1011.1mb 37f 32f
6:06 16 18 mph 1010.9mb 37f 32f
6:00 17 21 mph 1010.9mb 37f 32f
5:54 18 22 mph 1010.5mb 37f 32f
5:48 17 21 mph 1010.1mb 37f 32f
5:42 17 22 mph 1010.1mb 37f 32f
5:36 20 26 mph 1009.7mb 37f 32f
5:30 20 22 mph 1009.5mb 37f 32f
5:24 17 22 mph 1009.6mb 37f 32f
5:18 14 20 mph 1009.5mb 37f 32f
5:12 16 22 mph 1009.4mb 37f 33f
5:06 16 23 mph 1009.4mb 37f 33f
5:00 17 22 mph 1009.2mb 37f 33f
4:54 18 24 mph 1009.1mb 37f 33f
4:48 18 23 mph 1008.9mb 37f 33f
4:42 15 20 mph 1008.9mb 37f 33f
4:36 16 21 mph 1008.6mb 37f 33f
4:30 16 22 mph 1008.5mb 37f 33f
4:24 22 24 mph 1008.3mb 37f 33f
4:18 21 24 mph 1008.1mb 37f 34f
4:12 24 28 mph 1008mb 37f 34f
4:06 21 23 mph 1007.9mb 37f 34f
4:00 25 30 mph 1007.6mb 37f 34f
3:54 21 29 mph 1007.4mb 37f 34f
3:48 28 31 mph 1007.2mb 37f 34f
3:42 26 30 mph 1007mb 37f 34f
3:36 24 28 mph 1007.2mb 37f 35f
3:30 20 23 mph 1007mb 37f 35f
3:24 22 28 mph 1006.9mb 37f 35f
3:18 25 30 mph 1006.9mb 37f 35f
3:12 26 30 mph 1006.8mb 37f 35f
3:06 25 28 mph 1006.7mb 37f 35f
3:00 21 25 mph 1006.9mb 37f 35f
2:54 24 29 mph 1007mb 37f 35f
2:48 23 28 mph 1006.7mb 37f 35f
2:42 20 25 mph 1006.5mb 37f 36f
2:36 23 29 mph 1006.2mb 37f 36f
2:30 21 25 mph 1006mb 37f 36f
2:24 21 22 mph 1006mb 37f 36f
2:18 17 26 mph 1005.7mb 37f 36f
2:12 20 24 mph 1005.5mb 37f 36f
2:06 22 28 mph 1005.4mb 37f 36f
2:00 23 26 mph 1005.2mb 37f 36f
1:54 21 26 mph 1005.1mb 37f 36f
1:48 22 28 mph 1005mb 37f 36f
1:42 21 25 mph 1004.8mb 37f 37f
1:36 21 26 mph 1004.7mb 37f 37f
1:30 20 26 mph 1004.7mb 37f 36f
1:24 24 28 mph 1004.4mb 37f 36f
1:18 21 28 mph 1004.4mb 37f 36f
1:12 25 30 mph 1004.1mb 37f 36f
1:06 21 26 mph 1004.1mb 37f 36f
1:00 21 28 mph 1004mb 37f 37f
12:54 21 32 mph 1003.9mb 37f 37f
12:48 22 29 mph 1003.9mb 37f 37f
12:42 18 26 mph 1004mb 37f 37f
12:36 24 30 mph 1004mb 37f 37f
12:30 29 33 mph 1003.7mb 37f 37f
12:24 33 38 mph 1003.7mb 37f 37f
12:18 26 32 mph 1003.8mb 37f 37f
12:12 25 30 mph 1004mb 37f 37f
12:06 23 31 mph 1004.1mb 37f 37f
12:00 26 34 mph 1004.1mb 37f 37f
11:54 29 31 mph 1004mb 37f 37f
11:48 25 33 mph 1004mb 37f 37f
11:42 29 36 mph 1003.9mb 37f 37f
11:36 22 31 mph 1004mb 37f 37f
11:30 30 33 mph 1003.6mb 37f 37f
11:24 28 34 mph 1004.1mb 37f 37f
11:18 22 28 mph 1004mb 37f 37f
11:12 23 26 mph 1004.1mb 37f 37f
11:06 23 26 mph 1003.9mb 37f 37f
11:00 21 24 mph 1003.9mb 37f 37f
10:54 18 23 mph 1003.9mb 37f 38f
10:48 15 23 mph 1003.9mb 37f 38f
10:42 18 23 mph 1004mb 37f 37f
10:36 13 17 mph 1003.8mb 37f 37f
10:30 15 21 mph 1003.7mb 37f 37f
10:24 17 20 mph 1003.7mb 37f 37f
10:18 13 16 mph 1003.8mb 37f 37f
10:12 15 23 mph 1003.8mb 37f 37f
10:06 14 21 mph 1003.7mb 37f 37f
10:00 16 22 mph 1003.8mb 37f 37f
9:54 18 21 mph 1003.6mb 37f 37f
9:48 17 21 mph 1003.6mb 37f 36f
9:42 15 23 mph 1003.4mb 37f 36f
9:36 17 26 mph 1003.1mb 37f 36f
9:30 17 23 mph 1003.1mb 37f 36f
9:24 15 22 mph 1003mb 37f 36f
9:18 14 22 mph 1002.8mb 37f 35f
9:12 14 23 mph 1002.8mb 37f 35f
9:06 16 22 mph 1002.8mb 37f 35f
9:00 16 20 mph 1002.7mb 37f 35f
8:54 16 21 mph 1002.5mb 37f 35f
8:48 18 22 mph 1002.5mb 37f 35f
8:42 17 21 mph 1002.4mb 37f 34f
8:36 17 21 mph 1002.3mb 37f 34f
8:30 14 18 mph 1002.1mb 37f 34f
8:24 14 16 mph 1002mb 37f 34f
8:18 13 17 mph 1001.9mb 37f 34f
8:12 14 17 mph 1001.9mb 37f 34f
8:06 14 17 mph 1001.8mb 37f 33f
8:00 15 18 mph 1001.8mb 37f 33f
7:54 15 21 mph 1001.6mb 37f 33f
7:48 16 20 mph 1001.6mb 37f 33f
7:42 14 18 mph 1001.4mb 37f 33f
7:36 14 18 mph 1001.3mb 37f 33f
7:30 14 17 mph 1001.1mb 37f 33f
7:24 15 20 mph 1001mb 37f 32f
7:18 16 18 mph 1001mb 37f 32f
7:12 16 18 mph 1000.8mb 37f 32f
7:06 15 17 mph 1000.7mb 37f 32f
7:00 15 17 mph 1000.6mb 37f 32f
6:54 15 17 mph 1000.4mb 37f 32f
6:48 16 20 mph 1000.2mb 37f 32f
6:42 16 21 mph 1000.1mb 37f 32f
6:36 17 20 mph 1000.1mb 37f 32f
6:30 16 22 mph 1000mb 37f 32f
6:24 17 22 mph 999.8mb 37f 32f
6:18 18 23 mph 999.8mb 37f 32f
6:12 18 24 mph 999.6mb 37f 32f
6:06 22 29 mph 999.4mb 37f 32f
6:00 22 30 mph 999.3mb 37f -
5:54 24 31 mph 999.3mb 37f -
5:48 23 29 mph 999.1mb 37f 33f
5:42 24 30 mph 998.9mb 37f 33f
5:36 25 31 mph 998.8mb 37f 33f
5:30 28 33 mph 998.7mb 37f 33f
5:24 26 32 mph 998.5mb 37f 33f
5:18 28 31 mph 998.5mb 37f 33f
5:12 25 31 mph 998.3mb 37f 33f
5:06 25 31 mph 998.2mb 37f 33f
5:00 23 31 mph 998.1mb 37f 33f
4:54 22 28 mph 998mb 37f 34f
4:48 22 29 mph 998mb 37f 33f
4:42 17 23 mph 997.8mb 37f 34f
4:36 17 22 mph 997.8mb 37f 34f
4:30 18 22 mph 997.7mb 37f 34f
4:24 17 23 mph 997.7mb 37f 33f
4:18 17 22 mph 997.6mb 37f 33f
4:06 18 23 mph 997.5mb 37f 33f
4:00 16 23 mph 997.5mb 37f 33f
3:54 18 22 mph 997.4mb 37f 33f
3:48 18 23 mph 997.3mb 37f 33f
3:42 18 22 mph 997.1mb 37f 33f
3:36 20 24 mph 997mb 37f 33f
3:30 16 22 mph 996.9mb 37f 33f
3:24 18 26 mph 996.8mb 37f 33f
3:18 20 25 mph 996.8mb 37f 33f
3:12 21 25 mph 996.6mb 37f 33f
3:06 22 26 mph 996.5mb 37f 33f
3:00 22 25 mph 996.4mb 37f 33f
2:54 22 32 mph 996.4mb 37f 33f
2:48 24 29 mph 996.2mb 37f 33f
2:42 20 24 mph 996.2mb 37f 33f
2:36 21 24 mph 996.3mb 37f 33f
2:30 20 23 mph 996.4mb 37f 32f
2:24 17 24 mph 996.2mb 37f 32f
2:18 15 18 mph 996mb 37f 32f
2:12 13 16 mph 996mb 37f 32f
2:06 15 18 mph 996mb 37f 32f
2:00 14 17 mph 995.9mb 37f 32f
1:54 11 16 mph 995.6mb 37f 32f
1:48 13 18 mph 995.4mb 37f -
1:42 14 17 mph 995.3mb 37f -
1:36 14 16 mph 995.2mb 37f -
1:30 13 17 mph 995.1mb 37f 32f
1:24 14 16 mph 995mb 37f 33f
1:18 14 20 mph 994.8mb 37f 33f
1:12 14 18 mph 994.8mb 37f 33f
1:06 14 18 mph 994.7mb 37f 33f
1:00 13 15 mph 994.5mb 37f 33f
12:54 13 20 mph 994.4mb 37f 33f
12:48 13 17 mph 994.3mb 37f 33f
12:42 10 16 mph 994.1mb 37f 33f
12:36 11 14 mph 994mb 37f 33f
12:30 11 14 mph 994mb 37f 33f
12:24 10 13 mph 993.9mb 37f 33f
12:18 11 15 mph 993.8mb 37f 33f
12:12 13 15 mph 993.7mb 37f 33f
12:06 16 18 mph 993.4mb 37f 33f
12:00 11 15 mph 993.2mb 37f 33f
sáb 01/24 11:54 14 18 mph 993.2mb 37f 33f
11:48 14 17 mph 993mb 37f 34f
11:42 14 17 mph 992.9mb 37f 34f
11:36 15 16 mph 992.8mb 37f 34f
11:30 13 14 mph 992.9mb 37f 34f
11:24 13 15 mph 992.8mb 37f 34f
11:18 11 15 mph 992.6mb 37f 34f
11:12 14 17 mph 992.5mb 37f 34f
11:06 14 20 mph 992.4mb 37f 34f
11:00 15 17 mph 992.5mb 37f 35f
10:54 15 20 mph 992.4mb 37f 35f
10:48 16 20 mph 992.2mb 37f 35f
10:42 15 17 mph 992.1mb 37f 35f
10:36 14 17 mph 992.1mb 37f 35f
10:30 18 21 mph 992.1mb 37f 35f
10:24 18 24 mph 992mb 37f 35f
10:18 18 22 mph 991.9mb 37f 35f
10:12 15 17 mph 991.7mb 37f 35f
10:06 15 17 mph 991.5mb 37f 35f
10:00 16 21 mph 991.4mb 37f 35f
9:54 15 20 mph 991.3mb 37f 35f
9:48 15 17 mph 991.2mb 37f 35f
9:42 14 16 mph 991.3mb 37f 35f
9:36 14 16 mph 991.4mb 37f 35f
9:30 14 15 mph 991.4mb 37f 35f
9:24 11 15 mph 991.4mb 37f 35f
9:18 13 14 mph 991.2mb 37f 35f
9:12 10 13 mph 991mb 37f 35f
9:06 11 14 mph 990.8mb 37f 34f
9:00 14 16 mph 990.6mb 37f 34f
8:54 15 20 mph 990.5mb 37f 35f
8:48 18 22 mph 990.4mb 37f 35f
8:42 18 21 mph 990.3mb 37f 34f
8:36 17 20 mph 990.2mb 37f 34f
8:30 17 20 mph 990.2mb 37f 34f
8:24 15 17 mph 990.2mb 37f 34f
8:18 13 15 mph 990.2mb 37f 34f
8:12 15 18 mph 989.9mb 37f 34f
8:06 16 18 mph 989.9mb 37f 33f
8:00 13 15 mph 990mb 37f 33f
7:54 13 15 mph 990mb 37f 33f
7:48 14 15 mph 989.9mb 37f 33f
7:42 15 17 mph 989.8mb 37f 33f
7:36 16 18 mph 989.6mb 37f 33f
7:30 15 18 mph 989.6mb 37f 33f
7:24 18 22 mph 989.6mb 37f 33f
7:18 20 21 mph 989.4mb 37f 33f
7:12 16 21 mph 989.5mb 37f 33f
7:06 17 20 mph 989.6mb 37f 33f
7:00 17 21 mph 989.4mb 37f 33f
6:54 16 20 mph 989.2mb 37f 33f
6:48 16 20 mph 989mb 37f 33f
6:42 17 21 mph 988.8mb 37f 33f
6:36 18 22 mph 988.8mb 37f 33f
6:30 17 21 mph 988.6mb 37f 33f
6:24 20 22 mph 988.5mb 37f 33f
6:18 21 23 mph 988.5mb 37f 34f
6:12 20 23 mph 988.4mb 37f 34f
6:06 22 25 mph 988.2mb 37f 33f
6:00 22 26 mph 988.2mb 37f 33f
5:54 22 26 mph 988.2mb 37f 34f
5:48 23 25 mph 987.9mb 37f 34f
5:42 23 28 mph 987.9mb 37f 34f
5:36 24 26 mph 987.8mb 37f 34f
5:30 24 28 mph 987.6mb 37f 34f
5:24 21 26 mph 987.3mb 37f 34f
5:18 23 26 mph 986.7mb 37f 34f
5:12 22 25 mph 986.5mb 37f 33f
5:06 21 23 mph 986.3mb 37f 34f
5:00 21 24 mph 986mb 37f 33f
4:54 22 26 mph 986mb 37f 34f
4:48 23 26 mph 985.8mb 37f 34f
4:42 21 24 mph 986mb 37f 33f
4:36 21 25 mph 985.8mb 37f 33f
4:30 20 23 mph 986mb 37f 33f
4:24 18 24 mph 986.7mb 37f 34f
4:18 18 23 mph 986.8mb 37f 34f
4:12 18 26 mph 986.8mb 37f 33f
4:06 22 24 mph 986.7mb 37f 33f
4:00 21 25 mph 987.1mb 37f 33f
3:54 20 26 mph 987.5mb 37f 34f
3:48 22 28 mph 987.3mb 37f 34f
3:42 21 29 mph 987.3mb 37f 34f
3:36 22 28 mph 987.9mb 37f 34f
3:30 24 28 mph 987.7mb 37f 34f
3:24 24 29 mph 988.2mb 37f 34f
3:18 21 28 mph 988.3mb 37f 34f
3:12 21 25 mph 988.1mb 37f 34f
3:06 18 24 mph 989.3mb 37f 34f
3:00 17 23 mph 989.3mb 37f 34f
2:54 23 26 mph 988.7mb 37f 34f
2:48 23 26 mph 988.5mb 37f 34f
2:42 22 26 mph 989.5mb 37f 34f
2:36 22 24 mph 990mb 37f 34f
2:30 21 24 mph 991mb 37f 34f
2:24 20 23 mph 991mb 37f 34f
2:18 18 23 mph 991mb 37f 34f
2:12 17 21 mph 990.5mb 37f 34f
2:06 18 23 mph 990.4mb 37f 34f
2:00 17 22 mph 990.6mb 37f 34f
1:54 17 21 mph 991.6mb 37f 34f
1:48 20 26 mph 990.8mb 37f 34f
1:42 22 25 mph 990.3mb 37f 34f
1:36 20 25 mph 990.9mb 37f 34f
1:30 21 25 mph 990.5mb 37f 34f
1:24 20 25 mph 991.2mb 37f 34f
1:18 18 23 mph 992.1mb 37f 34f
1:12 20 29 mph 992.2mb 37f 34f
1:06 20 25 mph 991.9mb 37f 34f
1:00 18 23 mph 991.9mb 37f 34f
12:54 18 23 mph 991.8mb 37f 34f
12:48 18 24 mph 992.9mb 37f 34f
12:42 18 22 mph 993.8mb 37f 34f
12:36 14 18 mph 993.8mb 37f 34f
12:30 16 20 mph 993.7mb 37f 34f
12:24 15 18 mph 994.1mb 37f 34f
12:18 16 20 mph 994.8mb 37f 34f
12:06 16 18 mph 994.8mb 37f 33f
12:00 18 22 mph 995.2mb 37f 33f
11:54 16 23 mph 995.2mb 37f 33f
11:48 15 20 mph 995.7mb 37f 33f
11:42 16 21 mph 996.3mb 37f 33f
11:36 14 17 mph 996.4mb 37f 33f
11:30 13 17 mph 996.4mb 37f 33f
11:24 14 18 mph 996.4mb 37f 33f
11:18 14 20 mph 996.7mb 37f 33f
11:12 15 21 mph 997mb 37f 33f
11:06 14 17 mph 997.5mb 37f 33f
11:00 14 17 mph 997.9mb 37f 33f
10:54 14 17 mph 998.2mb 37f 33f
10:48 15 17 mph 998.7mb 37f 33f
10:42 15 17 mph 998.9mb 37f 33f
10:36 13 16 mph 999.7mb 37f 33f
10:30 13 15 mph 1000.2mb 37f 33f
10:24 13 16 mph 1000.3mb 37f 33f
10:18 13 15 mph 1000.4mb 37f 33f
10:12 13 14 mph 1000.5mb 37f 33f
10:06 10 11 mph 1000.8mb 37f 33f
10:00 8 9 mph 1001.4mb 37f 33f
9:54 7 8 mph 1001.6mb 37f 33f
9:48 6 8 mph 1001.9mb 37f 33f
9:42 7 9 mph 1001.7mb 37f 33f
9:36 8
mph
1001.8mb 37f 33f
9:30 6 8 mph 1002.5mb 37f 33f
9:24 6 7 mph 1002.6mb 37f 33f
9:18 6 8 mph 1002.7mb 37f 33f
9:12 7 8 mph 1002.6mb 37f 33f
9:06 7 9 mph 1002.6mb 37f 33f
9:00 7 10 mph 1002.6mb 37f 33f
8:54 9 11 mph 1002.4mb 37f 33f
8:48 8 11 mph 1002.7mb 37f 33f
8:42 11 15 mph 1002.7mb 37f 33f
8:36 13 15 mph 1002.7mb 37f 33f
8:30 14 15 mph 1002.9mb 37f 33f
8:24 11 15 mph 1003.2mb 37f 33f
8:18 11 14 mph 1003.6mb 37f 33f
8:12 11 15 mph 1003.8mb 37f 33f
8:06 13 15 mph 1003.7mb 37f 33f
8:00 15 17 mph 1003.9mb 37f 33f
7:54 14 17 mph 1004.2mb 37f 33f